sensor_id;sensor_type;location;lat;lon;timestamp;P1;durP1;ratioP1;P2;durP2;ratioP2
67941;SDS011;54731;42.600;23.476;2024-03-07T00:00:33;13.67;;;9.53;;
67941;SDS011;54731;42.600;23.476;2024-03-07T00:02:58;15.57;;;9.57;;
67941;SDS011;54731;42.600;23.476;2024-03-07T00:05:24;15.67;;;9.03;;
67941;SDS011;54731;42.600;23.476;2024-03-07T00:07:49;14.02;;;8.93;;
67941;SDS011;54731;42.600;23.476;2024-03-07T00:10:15;14.07;;;9.10;;
67941;SDS011;54731;42.600;23.476;2024-03-07T00:12:41;14.98;;;9.65;;
67941;SDS011;54731;42.600;23.476;2024-03-07T00:15:07;13.10;;;9.00;;
67941;SDS011;54731;42.600;23.476;2024-03-07T00:17:36;14.55;;;9.45;;
67941;SDS011;54731;42.600;23.476;2024-03-07T00:20:02;15.47;;;9.80;;
67941;SDS011;54731;42.600;23.476;2024-03-07T00:22:27;15.85;;;11.00;;
67941;SDS011;54731;42.600;23.476;2024-03-07T00:24:53;16.03;;;9.70;;
67941;SDS011;54731;42.600;23.476;2024-03-07T00:27:18;18.87;;;11.10;;
67941;SDS011;54731;42.600;23.476;2024-03-07T00:29:43;15.30;;;10.07;;
67941;SDS011;54731;42.600;23.476;2024-03-07T00:32:09;15.73;;;10.23;;
67941;SDS011;54731;42.600;23.476;2024-03-07T00:34:34;16.60;;;10.53;;
67941;SDS011;54731;42.600;23.476;2024-03-07T00:36:59;15.90;;;9.87;;
67941;SDS011;54731;42.600;23.476;2024-03-07T00:39:25;17.47;;;10.60;;
67941;SDS011;54731;42.600;23.476;2024-03-07T00:41:51;16.00;;;9.25;;
67941;SDS011;54731;42.600;23.476;2024-03-07T00:44:16;17.23;;;9.67;;
67941;SDS011;54731;42.600;23.476;2024-03-07T00:46:42;15.23;;;10.40;;
67941;SDS011;54731;42.600;23.476;2024-03-07T00:49:07;17.58;;;10.63;;
67941;SDS011;54731;42.600;23.476;2024-03-07T00:51:33;18.07;;;10.53;;
67941;SDS011;54731;42.600;23.476;2024-03-07T00:53:58;16.33;;;10.37;;
67941;SDS011;54731;42.600;23.476;2024-03-07T00:56:24;18.60;;;11.02;;
67941;SDS011;54731;42.600;23.476;2024-03-07T00:58:50;31.47;;;14.73;;
67941;SDS011;54731;42.600;23.476;2024-03-07T01:01:16;17.08;;;9.57;;
67941;SDS011;54731;42.600;23.476;2024-03-07T01:03:42;15.27;;;9.83;;
67941;SDS011;54731;42.600;23.476;2024-03-07T01:06:07;17.75;;;10.55;;
67941;SDS011;54731;42.600;23.476;2024-03-07T01:08:32;20.77;;;11.98;;
67941;SDS011;54731;42.600;23.476;2024-03-07T01:10:58;16.83;;;9.77;;
67941;SDS011;54731;42.600;23.476;2024-03-07T01:13:23;14.50;;;8.87;;
67941;SDS011;54731;42.600;23.476;2024-03-07T01:15:49;11.80;;;8.60;;
67941;SDS011;54731;42.600;23.476;2024-03-07T01:18:14;14.82;;;9.20;;
67941;SDS011;54731;42.600;23.476;2024-03-07T01:20:40;12.90;;;8.50;;
67941;SDS011;54731;42.600;23.476;2024-03-07T01:23:05;14.13;;;9.43;;
67941;SDS011;54731;42.600;23.476;2024-03-07T01:25:30;12.87;;;8.60;;
67941;SDS011;54731;42.600;23.476;2024-03-07T01:27:56;14.73;;;8.63;;
67941;SDS011;54731;42.600;23.476;2024-03-07T01:30:21;14.00;;;9.20;;
67941;SDS011;54731;42.600;23.476;2024-03-07T01:32:46;13.27;;;8.75;;
67941;SDS011;54731;42.600;23.476;2024-03-07T01:35:11;12.23;;;8.20;;
67941;SDS011;54731;42.600;23.476;2024-03-07T01:37:37;9.90;;;7.27;;
67941;SDS011;54731;42.600;23.476;2024-03-07T01:40:03;10.60;;;7.00;;
67941;SDS011;54731;42.600;23.476;2024-03-07T01:42:29;9.55;;;6.65;;
67941;SDS011;54731;42.600;23.476;2024-03-07T01:44:54;9.33;;;5.77;;
67941;SDS011;54731;42.600;23.476;2024-03-07T01:47:19;9.33;;;4.87;;
67941;SDS011;54731;42.600;23.476;2024-03-07T01:49:45;9.33;;;4.53;;
67941;SDS011;54731;42.600;23.476;2024-03-07T01:52:10;4.87;;;3.33;;
67941;SDS011;54731;42.600;23.476;2024-03-07T01:54:37;5.80;;;3.70;;
67941;SDS011;54731;42.600;23.476;2024-03-07T01:57:03;5.15;;;3.05;;
67941;SDS011;54731;42.600;23.476;2024-03-07T01:59:29;4.70;;;2.47;;
67941;SDS011;54731;42.600;23.476;2024-03-07T02:01:55;4.53;;;2.43;;
67941;SDS011;54731;42.600;23.476;2024-03-07T02:04:21;4.18;;;2.20;;
67941;SDS011;54731;42.600;23.476;2024-03-07T02:06:47;3.03;;;2.23;;
67941;SDS011;54731;42.600;23.476;2024-03-07T02:09:12;3.30;;;2.40;;
67941;SDS011;54731;42.600;23.476;2024-03-07T02:11:37;4.77;;;2.70;;
67941;SDS011;54731;42.600;23.476;2024-03-07T02:14:03;4.93;;;2.67;;
67941;SDS011;54731;42.600;23.476;2024-03-07T02:16:28;7.13;;;3.90;;
67941;SDS011;54731;42.600;23.476;2024-03-07T02:18:53;5.07;;;2.05;;
67941;SDS011;54731;42.600;23.476;2024-03-07T02:21:19;3.10;;;1.90;;
67941;SDS011;54731;42.600;23.476;2024-03-07T02:23:44;2.77;;;1.80;;
67941;SDS011;54731;42.600;23.476;2024-03-07T02:26:10;3.37;;;1.80;;
67941;SDS011;54731;42.600;23.476;2024-03-07T02:28:35;2.37;;;1.17;;
67941;SDS011;54731;42.600;23.476;2024-03-07T02:31:00;1.63;;;1.07;;
67941;SDS011;54731;42.600;23.476;2024-03-07T02:33:26;3.45;;;1.60;;
67941;SDS011;54731;42.600;23.476;2024-03-07T02:35:52;2.43;;;1.20;;
67941;SDS011;54731;42.600;23.476;2024-03-07T02:38:17;2.42;;;1.10;;
67941;SDS011;54731;42.600;23.476;2024-03-07T02:40:43;1.80;;;0.87;;
67941;SDS011;54731;42.600;23.476;2024-03-07T02:43:09;1.13;;;0.70;;
67941;SDS011;54731;42.600;23.476;2024-03-07T02:45:34;1.55;;;0.73;;
67941;SDS011;54731;42.600;23.476;2024-03-07T02:47:59;2.07;;;1.00;;
67941;SDS011;54731;42.600;23.476;2024-03-07T02:50:25;1.87;;;0.70;;
67941;SDS011;54731;42.600;23.476;2024-03-07T02:52:50;1.20;;;0.73;;
67941;SDS011;54731;42.600;23.476;2024-03-07T02:55:15;1.97;;;1.30;;
67941;SDS011;54731;42.600;23.476;2024-03-07T02:57:41;2.80;;;1.53;;
67941;SDS011;54731;42.600;23.476;2024-03-07T03:00:06;3.57;;;1.23;;
67941;SDS011;54731;42.600;23.476;2024-03-07T03:02:32;3.28;;;0.90;;
67941;SDS011;54731;42.600;23.476;2024-03-07T03:04:57;1.70;;;0.50;;
67941;SDS011;54731;42.600;23.476;2024-03-07T03:07:23;1.30;;;0.53;;
67941;SDS011;54731;42.600;23.476;2024-03-07T03:09:48;0.77;;;0.23;;
67941;SDS011;54731;42.600;23.476;2024-03-07T03:12:13;0.57;;;0.23;;
67941;SDS011;54731;42.600;23.476;2024-03-07T03:14:38;0.50;;;0.30;;
67941;SDS011;54731;42.600;23.476;2024-03-07T03:17:04;1.27;;;0.30;;
67941;SDS011;54731;42.600;23.476;2024-03-07T03:19:29;1.80;;;0.87;;
67941;SDS011;54731;42.600;23.476;2024-03-07T03:21:55;1.43;;;0.50;;
67941;SDS011;54731;42.600;23.476;2024-03-07T03:24:20;0.70;;;0.33;;
67941;SDS011;54731;42.600;23.476;2024-03-07T03:26:45;0.60;;;0.20;;
67941;SDS011;54731;42.600;23.476;2024-03-07T03:29:13;0.50;;;0.20;;
67941;SDS011;54731;42.600;23.476;2024-03-07T03:31:41;0.77;;;0.30;;
67941;SDS011;54731;42.600;23.476;2024-03-07T03:34:06;0.70;;;0.40;;
67941;SDS011;54731;42.600;23.476;2024-03-07T03:36:32;0.70;;;0.50;;
67941;SDS011;54731;42.600;23.476;2024-03-07T03:38:57;1.10;;;0.50;;
67941;SDS011;54731;42.600;23.476;2024-03-07T03:41:22;0.60;;;0.30;;
67941;SDS011;54731;42.600;23.476;2024-03-07T03:43:47;1.00;;;0.33;;
67941;SDS011;54731;42.600;23.476;2024-03-07T03:46:13;1.42;;;0.40;;
67941;SDS011;54731;42.600;23.476;2024-03-07T03:48:38;0.60;;;0.20;;
67941;SDS011;54731;42.600;23.476;2024-03-07T03:51:06;0.57;;;0.30;;
67941;SDS011;54731;42.600;23.476;2024-03-07T03:53:32;1.02;;;0.38;;
67941;SDS011;54731;42.600;23.476;2024-03-07T03:55:57;0.90;;;0.50;;
67941;SDS011;54731;42.600;23.476;2024-03-07T03:58:23;0.73;;;0.43;;
67941;SDS011;54731;42.600;23.476;2024-03-07T04:00:48;0.90;;;0.60;;
67941;SDS011;54731;42.600;23.476;2024-03-07T04:03:13;1.30;;;0.40;;
67941;SDS011;54731;42.600;23.476;2024-03-07T04:05:38;1.33;;;0.50;;
67941;SDS011;54731;42.600;23.476;2024-03-07T04:08:04;2.90;;;1.23;;
67941;SDS011;54731;42.600;23.476;2024-03-07T04:10:29;1.27;;;0.47;;
67941;SDS011;54731;42.600;23.476;2024-03-07T04:12:54;0.63;;;0.30;;
67941;SDS011;54731;42.600;23.476;2024-03-07T04:15:20;0.93;;;0.40;;
67941;SDS011;54731;42.600;23.476;2024-03-07T04:17:45;0.80;;;0.30;;
67941;SDS011;54731;42.600;23.476;2024-03-07T04:20:11;0.93;;;0.38;;
67941;SDS011;54731;42.600;23.476;2024-03-07T04:22:37;0.40;;;0.23;;
67941;SDS011;54731;42.600;23.476;2024-03-07T04:25:02;0.77;;;0.32;;
67941;SDS011;54731;42.600;23.476;2024-03-07T04:27:28;1.23;;;0.40;;
67941;SDS011;54731;42.600;23.476;2024-03-07T04:29:53;0.37;;;0.20;;
67941;SDS011;54731;42.600;23.476;2024-03-07T04:32:19;0.73;;;0.35;;
67941;SDS011;54731;42.600;23.476;2024-03-07T04:34:44;0.50;;;0.30;;
67941;SDS011;54731;42.600;23.476;2024-03-07T04:37:10;0.20;;;0.20;;
67941;SDS011;54731;42.600;23.476;2024-03-07T04:39:35;1.60;;;1.00;;
67941;SDS011;54731;42.600;23.476;2024-03-07T04:42:01;0.70;;;0.30;;
67941;SDS011;54731;42.600;23.476;2024-03-07T04:44:28;0.73;;;0.30;;
67941;SDS011;54731;42.600;23.476;2024-03-07T04:46:54;0.60;;;0.20;;
67941;SDS011;54731;42.600;23.476;2024-03-07T04:49:19;0.50;;;0.30;;
67941;SDS011;54731;42.600;23.476;2024-03-07T04:51:44;0.77;;;0.22;;
67941;SDS011;54731;42.600;23.476;2024-03-07T04:54:10;0.60;;;0.30;;
67941;SDS011;54731;42.600;23.476;2024-03-07T04:56:35;0.73;;;0.30;;
67941;SDS011;54731;42.600;23.476;2024-03-07T04:59:00;0.50;;;0.20;;
67941;SDS011;54731;42.600;23.476;2024-03-07T05:01:26;0.20;;;0.10;;
67941;SDS011;54731;42.600;23.476;2024-03-07T05:03:51;0.53;;;0.10;;
67941;SDS011;54731;42.600;23.476;2024-03-07T05:06:16;0.30;;;0.17;;
67941;SDS011;54731;42.600;23.476;2024-03-07T05:08:41;2.20;;;0.70;;
67941;SDS011;54731;42.600;23.476;2024-03-07T05:11:07;0.93;;;0.30;;
67941;SDS011;54731;42.600;23.476;2024-03-07T05:13:32;0.40;;;0.30;;
67941;SDS011;54731;42.600;23.476;2024-03-07T05:15:57;0.70;;;0.25;;
67941;SDS011;54731;42.600;23.476;2024-03-07T05:18:23;7.80;;;3.00;;
67941;SDS011;54731;42.600;23.476;2024-03-07T05:20:48;1.17;;;0.40;;
67941;SDS011;54731;42.600;23.476;2024-03-07T05:23:14;0.20;;;0.10;;
67941;SDS011;54731;42.600;23.476;2024-03-07T05:25:39;0.63;;;0.20;;
67941;SDS011;54731;42.600;23.476;2024-03-07T05:28:04;0.38;;;0.20;;
67941;SDS011;54731;42.600;23.476;2024-03-07T05:30:30;0.57;;;0.20;;
67941;SDS011;54731;42.600;23.476;2024-03-07T05:32:55;0.40;;;0.20;;
67941;SDS011;54731;42.600;23.476;2024-03-07T05:35:20;1.00;;;0.40;;
67941;SDS011;54731;42.600;23.476;2024-03-07T05:37:46;0.70;;;0.30;;
67941;SDS011;54731;42.600;23.476;2024-03-07T05:40:11;1.60;;;0.30;;
67941;SDS011;54731;42.600;23.476;2024-03-07T05:42:36;0.60;;;0.30;;
67941;SDS011;54731;42.600;23.476;2024-03-07T05:45:02;0.47;;;0.20;;
67941;SDS011;54731;42.600;23.476;2024-03-07T05:47:27;0.50;;;0.22;;
67941;SDS011;54731;42.600;23.476;2024-03-07T05:49:52;0.97;;;0.40;;
67941;SDS011;54731;42.600;23.476;2024-03-07T05:52:18;0.40;;;0.20;;
67941;SDS011;54731;42.600;23.476;2024-03-07T05:54:43;0.57;;;0.30;;
67941;SDS011;54731;42.600;23.476;2024-03-07T05:57:08;0.40;;;0.20;;
67941;SDS011;54731;42.600;23.476;2024-03-07T05:59:34;0.47;;;0.30;;
67941;SDS011;54731;42.600;23.476;2024-03-07T06:01:59;0.70;;;0.37;;
67941;SDS011;54731;42.600;23.476;2024-03-07T06:04:24;1.83;;;1.33;;
67941;SDS011;54731;42.600;23.476;2024-03-07T06:06:50;0.90;;;0.57;;
67941;SDS011;54731;42.600;23.476;2024-03-07T06:09:15;0.73;;;0.27;;
67941;SDS011;54731;42.600;23.476;2024-03-07T06:11:40;1.47;;;0.70;;
67941;SDS011;54731;42.600;23.476;2024-03-07T06:14:06;6.23;;;2.50;;
67941;SDS011;54731;42.600;23.476;2024-03-07T06:16:36;13.25;;;4.07;;
67941;SDS011;54731;42.600;23.476;2024-03-07T06:19:02;8.33;;;2.97;;
67941;SDS011;54731;42.600;23.476;2024-03-07T06:21:29;1.02;;;0.70;;
67941;SDS011;54731;42.600;23.476;2024-03-07T06:23:55;3.53;;;0.68;;
67941;SDS011;54731;42.600;23.476;2024-03-07T06:26:20;3.70;;;1.50;;
67941;SDS011;54731;42.600;23.476;2024-03-07T06:28:45;5.73;;;3.00;;
67941;SDS011;54731;42.600;23.476;2024-03-07T06:31:11;1.97;;;0.80;;
67941;SDS011;54731;42.600;23.476;2024-03-07T06:33:36;2.73;;;0.50;;
67941;SDS011;54731;42.600;23.476;2024-03-07T06:36:01;0.70;;;0.45;;
67941;SDS011;54731;42.600;23.476;2024-03-07T06:38:27;0.70;;;0.50;;
67941;SDS011;54731;42.600;23.476;2024-03-07T06:40:52;1.00;;;0.60;;
67941;SDS011;54731;42.600;23.476;2024-03-07T06:43:18;1.60;;;1.10;;
67941;SDS011;54731;42.600;23.476;2024-03-07T06:45:43;0.63;;;0.30;;
67941;SDS011;54731;42.600;23.476;2024-03-07T06:48:09;0.57;;;0.30;;
67941;SDS011;54731;42.600;23.476;2024-03-07T06:50:43;0.85;;;0.32;;
67941;SDS011;54731;42.600;23.476;2024-03-07T06:53:09;12.85;;;5.32;;
67941;SDS011;54731;42.600;23.476;2024-03-07T06:55:34;5.80;;;4.00;;
67941;SDS011;54731;42.600;23.476;2024-03-07T06:58:00;1.65;;;1.40;;
67941;SDS011;54731;42.600;23.476;2024-03-07T07:00:26;1.10;;;0.50;;
67941;SDS011;54731;42.600;23.476;2024-03-07T07:02:51;0.50;;;0.30;;
67941;SDS011;54731;42.600;23.476;2024-03-07T07:05:17;0.93;;;0.40;;
67941;SDS011;54731;42.600;23.476;2024-03-07T07:07:42;1.33;;;0.30;;
67941;SDS011;54731;42.600;23.476;2024-03-07T07:10:08;1.90;;;1.30;;
67941;SDS011;54731;42.600;23.476;2024-03-07T07:12:35;0.63;;;0.30;;
67941;SDS011;54731;42.600;23.476;2024-03-07T07:15:00;0.95;;;0.30;;
67941;SDS011;54731;42.600;23.476;2024-03-07T07:17:26;1.00;;;0.40;;
67941;SDS011;54731;42.600;23.476;2024-03-07T07:19:51;1.67;;;0.50;;
67941;SDS011;54731;42.600;23.476;2024-03-07T07:22:16;1.23;;;0.50;;
67941;SDS011;54731;42.600;23.476;2024-03-07T07:24:42;1.07;;;0.50;;
67941;SDS011;54731;42.600;23.476;2024-03-07T07:27:07;0.38;;;0.30;;
67941;SDS011;54731;42.600;23.476;2024-03-07T07:29:33;1.10;;;0.60;;
67941;SDS011;54731;42.600;23.476;2024-03-07T07:31:58;1.00;;;0.50;;
67941;SDS011;54731;42.600;23.476;2024-03-07T07:34:23;0.30;;;0.23;;
67941;SDS011;54731;42.600;23.476;2024-03-07T07:36:48;0.50;;;0.20;;
67941;SDS011;54731;42.600;23.476;2024-03-07T07:39:14;1.07;;;0.40;;
67941;SDS011;54731;42.600;23.476;2024-03-07T07:41:39;0.60;;;0.20;;
67941;SDS011;54731;42.600;23.476;2024-03-07T07:44:04;0.40;;;0.20;;
67941;SDS011;54731;42.600;23.476;2024-03-07T07:46:30;0.60;;;0.20;;
67941;SDS011;54731;42.600;23.476;2024-03-07T07:48:55;0.30;;;0.30;;
67941;SDS011;54731;42.600;23.476;2024-03-07T07:51:20;0.50;;;0.30;;
67941;SDS011;54731;42.600;23.476;2024-03-07T07:53:45;0.57;;;0.47;;
67941;SDS011;54731;42.600;23.476;2024-03-07T07:56:11;0.63;;;0.40;;
67941;SDS011;54731;42.600;23.476;2024-03-07T07:58:36;0.50;;;0.30;;
67941;SDS011;54731;42.600;23.476;2024-03-07T08:01:02;0.67;;;0.20;;
67941;SDS011;54731;42.600;23.476;2024-03-07T08:03:27;2.10;;;0.47;;
67941;SDS011;54731;42.600;23.476;2024-03-07T08:05:52;3.37;;;0.53;;
67941;SDS011;54731;42.600;23.476;2024-03-07T08:08:18;2.30;;;1.60;;
67941;SDS011;54731;42.600;23.476;2024-03-07T08:10:43;1.20;;;0.80;;
67941;SDS011;54731;42.600;23.476;2024-03-07T08:13:08;0.60;;;0.40;;
67941;SDS011;54731;42.600;23.476;2024-03-07T08:15:34;0.80;;;0.40;;
67941;SDS011;54731;42.600;23.476;2024-03-07T08:17:59;2.40;;;0.80;;
67941;SDS011;54731;42.600;23.476;2024-03-07T08:20:25;5.80;;;3.88;;
67941;SDS011;54731;42.600;23.476;2024-03-07T08:22:52;1.40;;;0.90;;
67941;SDS011;54731;42.600;23.476;2024-03-07T08:25:22;1.05;;;0.60;;
67941;SDS011;54731;42.600;23.476;2024-03-07T08:27:51;1.63;;;0.60;;
67941;SDS011;54731;42.600;23.476;2024-03-07T08:30:18;2.03;;;1.00;;
67941;SDS011;54731;42.600;23.476;2024-03-07T08:35:10;0.93;;;0.53;;
67941;SDS011;54731;42.600;23.476;2024-03-07T08:37:36;1.02;;;0.50;;
67941;SDS011;54731;42.600;23.476;2024-03-07T08:40:01;1.60;;;0.70;;
67941;SDS011;54731;42.600;23.476;2024-03-07T08:42:27;1.65;;;1.10;;
67941;SDS011;54731;42.600;23.476;2024-03-07T08:44:52;3.80;;;2.37;;
67941;SDS011;54731;42.600;23.476;2024-03-07T08:47:18;3.43;;;2.10;;
67941;SDS011;54731;42.600;23.476;2024-03-07T08:49:43;8.77;;;3.37;;
67941;SDS011;54731;42.600;23.476;2024-03-07T08:52:08;5.43;;;2.83;;
67941;SDS011;54731;42.600;23.476;2024-03-07T08:54:34;3.23;;;1.73;;
67941;SDS011;54731;42.600;23.476;2024-03-07T08:56:59;4.82;;;2.08;;
67941;SDS011;54731;42.600;23.476;2024-03-07T08:59:24;4.10;;;2.00;;
67941;SDS011;54731;42.600;23.476;2024-03-07T09:01:50;3.50;;;1.20;;
67941;SDS011;54731;42.600;23.476;2024-03-07T09:04:15;3.00;;;1.60;;
67941;SDS011;54731;42.600;23.476;2024-03-07T09:06:40;2.87;;;1.50;;
67941;SDS011;54731;42.600;23.476;2024-03-07T09:09:05;1.00;;;0.50;;
67941;SDS011;54731;42.600;23.476;2024-03-07T09:11:31;2.27;;;1.47;;
67941;SDS011;54731;42.600;23.476;2024-03-07T09:13:56;2.17;;;1.20;;
67941;SDS011;54731;42.600;23.476;2024-03-07T09:16:21;2.10;;;0.90;;
67941;SDS011;54731;42.600;23.476;2024-03-07T09:18:47;1.60;;;1.03;;
67941;SDS011;54731;42.600;23.476;2024-03-07T09:21:12;2.90;;;1.48;;
67941;SDS011;54731;42.600;23.476;2024-03-07T09:23:37;2.07;;;1.20;;
67941;SDS011;54731;42.600;23.476;2024-03-07T09:26:02;2.20;;;1.60;;
67941;SDS011;54731;42.600;23.476;2024-03-07T09:28:28;2.50;;;1.30;;
67941;SDS011;54731;42.600;23.476;2024-03-07T09:30:53;2.10;;;1.23;;
67941;SDS011;54731;42.600;23.476;2024-03-07T09:33:18;2.23;;;1.20;;
67941;SDS011;54731;42.600;23.476;2024-03-07T09:35:44;1.43;;;0.90;;
67941;SDS011;54731;42.600;23.476;2024-03-07T09:38:09;1.80;;;0.97;;
67941;SDS011;54731;42.600;23.476;2024-03-07T09:40:34;2.03;;;1.20;;
67941;SDS011;54731;42.600;23.476;2024-03-07T09:43:00;2.15;;;1.27;;
67941;SDS011;54731;42.600;23.476;2024-03-07T09:45:28;2.40;;;1.10;;
67941;SDS011;54731;42.600;23.476;2024-03-07T09:47:54;6.22;;;2.30;;
67941;SDS011;54731;42.600;23.476;2024-03-07T09:50:20;6.28;;;3.08;;
67941;SDS011;54731;42.600;23.476;2024-03-07T09:52:48;5.55;;;3.08;;
67941;SDS011;54731;42.600;23.476;2024-03-07T09:55:13;2.57;;;1.50;;
67941;SDS011;54731;42.600;23.476;2024-03-07T09:57:39;2.40;;;1.55;;
67941;SDS011;54731;42.600;23.476;2024-03-07T10:00:06;3.15;;;2.13;;
67941;SDS011;54731;42.600;23.476;2024-03-07T10:02:34;2.17;;;1.52;;
67941;SDS011;54731;42.600;23.476;2024-03-07T10:05:01;3.05;;;2.03;;
67941;SDS011;54731;42.600;23.476;2024-03-07T10:07:29;5.45;;;3.20;;
67941;SDS011;54731;42.600;23.476;2024-03-07T10:09:55;3.90;;;2.20;;
67941;SDS011;54731;42.600;23.476;2024-03-07T10:12:20;7.60;;;2.90;;
67941;SDS011;54731;42.600;23.476;2024-03-07T10:14:48;7.70;;;2.57;;
67941;SDS011;54731;42.600;23.476;2024-03-07T10:17:14;5.05;;;1.77;;
67941;SDS011;54731;42.600;23.476;2024-03-07T10:19:40;3.67;;;1.40;;
67941;SDS011;54731;42.600;23.476;2024-03-07T10:22:06;10.10;;;3.30;;
67941;SDS011;54731;42.600;23.476;2024-03-07T10:24:31;4.23;;;2.20;;
67941;SDS011;54731;42.600;23.476;2024-03-07T10:26:56;6.60;;;1.87;;
67941;SDS011;54731;42.600;23.476;2024-03-07T10:29:22;2.73;;;1.40;;
67941;SDS011;54731;42.600;23.476;2024-03-07T10:31:47;5.22;;;1.35;;
67941;SDS011;54731;42.600;23.476;2024-03-07T10:34:12;1.93;;;1.40;;
67941;SDS011;54731;42.600;23.476;2024-03-07T10:36:38;2.50;;;1.60;;
67941;SDS011;54731;42.600;23.476;2024-03-07T10:39:03;3.60;;;1.33;;
67941;SDS011;54731;42.600;23.476;2024-03-07T10:41:28;4.73;;;2.50;;
67941;SDS011;54731;42.600;23.476;2024-03-07T10:43:56;5.70;;;3.22;;
67941;SDS011;54731;42.600;23.476;2024-03-07T10:46:22;4.70;;;2.45;;
67941;SDS011;54731;42.600;23.476;2024-03-07T10:48:50;6.33;;;3.53;;
67941;SDS011;54731;42.600;23.476;2024-03-07T10:51:33;5.10;;;2.95;;
67941;SDS011;54731;42.600;23.476;2024-03-07T10:54:08;5.80;;;3.50;;
67941;SDS011;54731;42.600;23.476;2024-03-07T10:59:37;7.47;;;4.63;;
67941;SDS011;54731;42.600;23.476;2024-03-07T11:02:13;5.90;;;3.53;;
67941;SDS011;54731;42.600;23.476;2024-03-07T11:04:44;11.07;;;4.93;;
67941;SDS011;54731;42.600;23.476;2024-03-07T11:07:10;10.75;;;5.93;;
67941;SDS011;54731;42.600;23.476;2024-03-07T11:09:36;7.10;;;4.38;;
67941;SDS011;54731;42.600;23.476;2024-03-07T11:12:01;6.70;;;3.80;;
67941;SDS011;54731;42.600;23.476;2024-03-07T11:14:28;7.22;;;5.13;;
67941;SDS011;54731;42.600;23.476;2024-03-07T11:16:55;9.90;;;6.63;;
67941;SDS011;54731;42.600;23.476;2024-03-07T11:19:31;5.13;;;3.87;;
67941;SDS011;54731;42.600;23.476;2024-03-07T11:21:59;6.03;;;3.15;;
67941;SDS011;54731;42.600;23.476;2024-03-07T11:24:25;20.40;;;13.20;;
67941;SDS011;54731;42.600;23.476;2024-03-07T11:26:52;28.30;;;21.33;;
67941;SDS011;54731;42.600;23.476;2024-03-07T11:32:06;48.97;;;36.53;;
67941;SDS011;54731;42.600;23.476;2024-03-07T11:34:31;6.32;;;3.92;;
67941;SDS011;54731;42.600;23.476;2024-03-07T11:36:56;2.00;;;1.53;;
67941;SDS011;54731;42.600;23.476;2024-03-07T11:39:40;14.07;;;9.30;;
67941;SDS011;54731;42.600;23.476;2024-03-07T11:42:09;20.83;;;15.80;;
67941;SDS011;54731;42.600;23.476;2024-03-07T11:44:53;11.82;;;7.80;;
67941;SDS011;54731;42.600;23.476;2024-03-07T11:47:20;67.83;;;51.27;;
67941;SDS011;54731;42.600;23.476;2024-03-07T11:49:45;63.03;;;52.77;;
67941;SDS011;54731;42.600;23.476;2024-03-07T11:52:10;26.35;;;23.52;;
67941;SDS011;54731;42.600;23.476;2024-03-07T11:54:36;42.10;;;22.70;;
67941;SDS011;54731;42.600;23.476;2024-03-07T11:57:01;16.13;;;10.30;;
67941;SDS011;54731;42.600;23.476;2024-03-07T11:59:26;15.27;;;11.10;;
67941;SDS011;54731;42.600;23.476;2024-03-07T12:01:53;85.53;;;45.03;;
67941;SDS011;54731;42.600;23.476;2024-03-07T12:04:18;151.98;;;60.30;;
67941;SDS011;54731;42.600;23.476;2024-03-07T12:06:51;67.97;;;30.13;;
67941;SDS011;54731;42.600;23.476;2024-03-07T12:09:16;19.83;;;10.00;;
67941;SDS011;54731;42.600;23.476;2024-03-07T12:11:42;33.93;;;15.33;;
67941;SDS011;54731;42.600;23.476;2024-03-07T12:14:07;43.23;;;17.07;;
67941;SDS011;54731;42.600;23.476;2024-03-07T12:16:32;3.27;;;2.33;;
67941;SDS011;54731;42.600;23.476;2024-03-07T12:18:58;29.17;;;12.47;;
67941;SDS011;54731;42.600;23.476;2024-03-07T12:21:23;4.30;;;2.83;;
67941;SDS011;54731;42.600;23.476;2024-03-07T12:23:49;4.53;;;1.83;;
67941;SDS011;54731;42.600;23.476;2024-03-07T12:26:19;3.97;;;2.53;;
67941;SDS011;54731;42.600;23.476;2024-03-07T12:28:45;31.50;;;15.30;;
67941;SDS011;54731;42.600;23.476;2024-03-07T12:31:10;97.23;;;40.97;;
67941;SDS011;54731;42.600;23.476;2024-03-07T12:33:36;54.95;;;25.67;;
67941;SDS011;54731;42.600;23.476;2024-03-07T12:36:01;57.93;;;23.67;;
67941;SDS011;54731;42.600;23.476;2024-03-07T12:38:27;20.87;;;10.00;;
67941;SDS011;54731;42.600;23.476;2024-03-07T12:41:03;323.63;;;87.18;;
67941;SDS011;54731;42.600;23.476;2024-03-07T12:43:31;156.45;;;47.75;;
67941;SDS011;54731;42.600;23.476;2024-03-07T12:45:56;149.75;;;42.85;;
67941;SDS011;54731;42.600;23.476;2024-03-07T12:48:22;24.50;;;9.03;;
67941;SDS011;54731;42.600;23.476;2024-03-07T12:50:47;93.07;;;28.43;;
67941;SDS011;54731;42.600;23.476;2024-03-07T12:53:13;82.78;;;23.73;;
67941;SDS011;54731;42.600;23.476;2024-03-07T12:55:39;61.53;;;19.87;;
67941;SDS011;54731;42.600;23.476;2024-03-07T12:58:05;87.70;;;28.25;;
67941;SDS011;54731;42.600;23.476;2024-03-07T13:00:30;21.43;;;7.30;;
67941;SDS011;54731;42.600;23.476;2024-03-07T13:02:55;103.70;;;32.80;;
67941;SDS011;54731;42.600;23.476;2024-03-07T13:05:21;44.80;;;16.23;;
67941;SDS011;54731;42.600;23.476;2024-03-07T13:07:46;41.97;;;13.37;;
67941;SDS011;54731;42.600;23.476;2024-03-07T13:10:12;78.60;;;24.80;;
67941;SDS011;54731;42.600;23.476;2024-03-07T13:12:38;148.57;;;51.15;;
67941;SDS011;54731;42.600;23.476;2024-03-07T13:15:03;55.77;;;20.03;;
67941;SDS011;54731;42.600;23.476;2024-03-07T13:17:29;14.13;;;6.50;;
67941;SDS011;54731;42.600;23.476;2024-03-07T13:19:54;58.53;;;26.97;;
67941;SDS011;54731;42.600;23.476;2024-03-07T13:22:19;43.73;;;24.87;;
67941;SDS011;54731;42.600;23.476;2024-03-07T13:24:45;22.38;;;12.75;;
67941;SDS011;54731;42.600;23.476;2024-03-07T13:27:10;4.47;;;3.53;;
67941;SDS011;54731;42.600;23.476;2024-03-07T13:29:35;28.77;;;18.77;;
67941;SDS011;54731;42.600;23.476;2024-03-07T13:32:00;15.70;;;8.90;;
67941;SDS011;54731;42.600;23.476;2024-03-07T13:34:26;9.47;;;5.77;;
67941;SDS011;54731;42.600;23.476;2024-03-07T13:36:51;12.07;;;6.43;;
67941;SDS011;54731;42.600;23.476;2024-03-07T13:39:16;7.37;;;3.27;;
67941;SDS011;54731;42.600;23.476;2024-03-07T13:41:42;9.73;;;5.37;;
67941;SDS011;54731;42.600;23.476;2024-03-07T13:44:08;15.30;;;8.93;;
67941;SDS011;54731;42.600;23.476;2024-03-07T13:46:34;6.87;;;4.40;;
67941;SDS011;54731;42.600;23.476;2024-03-07T13:49:02;12.15;;;6.35;;
67941;SDS011;54731;42.600;23.476;2024-03-07T13:51:28;10.02;;;5.18;;
67941;SDS011;54731;42.600;23.476;2024-03-07T13:53:53;12.88;;;7.72;;
67941;SDS011;54731;42.600;23.476;2024-03-07T14:10:05;34.28;;;13.73;;
67941;SDS011;54731;42.600;23.476;2024-03-07T14:12:57;9.65;;;4.57;;
67941;SDS011;54731;42.600;23.476;2024-03-07T14:21:44;11.68;;;6.15;;
67941;SDS011;54731;42.600;23.476;2024-03-07T14:24:37;17.83;;;7.80;;
67941;SDS011;54731;42.600;23.476;2024-03-07T14:32:34;13.02;;;7.05;;
67941;SDS011;54731;42.600;23.476;2024-03-07T14:37:37;9.32;;;4.90;;
67941;SDS011;54731;42.600;23.476;2024-03-07T14:40:14;16.77;;;7.88;;
67941;SDS011;54731;42.600;23.476;2024-03-07T14:42:44;10.00;;;5.45;;
67941;SDS011;54731;42.600;23.476;2024-03-07T14:45:12;14.15;;;6.78;;
67941;SDS011;54731;42.600;23.476;2024-03-07T14:47:39;40.65;;;18.63;;
67941;SDS011;54731;42.600;23.476;2024-03-07T14:50:05;20.73;;;11.60;;
67941;SDS011;54731;42.600;23.476;2024-03-07T14:52:31;19.15;;;12.80;;
67941;SDS011;54731;42.600;23.476;2024-03-07T14:54:56;9.00;;;4.40;;
67941;SDS011;54731;42.600;23.476;2024-03-07T14:57:22;32.90;;;18.17;;